sensor_id;sensor_type;location;lat;lon;timestamp;pressure;altitude;pressure_sealevel;temperature;humidity
74552;BME280;63025;55.472;38.432;2023-11-21T00:00:32;99666.59;;;-7.00;100.00
74552;BME280;63025;55.472;38.432;2023-11-21T00:02:58;99666.72;;;-7.02;100.00
74552;BME280;63025;55.472;38.432;2023-11-21T00:05:24;99667.88;;;-7.06;100.00
74552;BME280;63025;55.472;38.432;2023-11-21T00:07:49;99659.91;;;-7.05;100.00
74552;BME280;63025;55.472;38.432;2023-11-21T00:10:15;99668.81;;;-7.07;100.00
74552;BME280;63025;55.472;38.432;2023-11-21T00:12:42;99652.81;;;-7.03;100.00
74552;BME280;63025;55.472;38.432;2023-11-21T00:15:08;99657.00;;;-7.00;100.00
74552;BME280;63025;55.472;38.432;2023-11-21T00:17:37;99662.00;;;-6.97;100.00
74552;BME280;63025;55.472;38.432;2023-11-21T00:20:06;99659.25;;;-6.95;100.00
74552;BME280;63025;55.472;38.432;2023-11-21T00:22:36;99662.00;;;-6.97;100.00
74552;BME280;63025;55.472;38.432;2023-11-21T00:25:02;99667.44;;;-7.00;100.00
74552;BME280;63025;55.472;38.432;2023-11-21T00:27:31;99659.25;;;-6.95;100.00
74552;BME280;63025;55.472;38.432;2023-11-21T00:29:57;99652.78;;;-6.90;100.00
74552;BME280;63025;55.472;38.432;2023-11-21T00:32:23;99654.47;;;-6.89;100.00
74552;BME280;63025;55.472;38.432;2023-11-21T00:34:49;99658.56;;;-6.97;100.00
74552;BME280;63025;55.472;38.432;2023-11-21T00:37:15;99673.06;;;-6.93;100.00
74552;BME280;63025;55.472;38.432;2023-11-21T00:39:41;99665.13;;;-6.92;100.00
74552;BME280;63025;55.472;38.432;2023-11-21T00:42:07;99666.78;;;-6.91;100.00
74552;BME280;63025;55.472;38.432;2023-11-21T00:44:34;99666.78;;;-6.91;100.00
74552;BME280;63025;55.472;38.432;2023-11-21T00:47:03;99664.28;;;-6.92;100.00
74552;BME280;63025;55.472;38.432;2023-11-21T00:49:29;99663.22;;;-6.90;100.00
74552;BME280;63025;55.472;38.432;2023-11-21T00:51:55;99657.28;;;-6.92;100.00
74552;BME280;63025;55.472;38.432;2023-11-21T00:54:21;99667.63;;;-6.90;100.00
74552;BME280;63025;55.472;38.432;2023-11-21T00:56:47;99663.22;;;-6.90;100.00
74552;BME280;63025;55.472;38.432;2023-11-21T00:59:13;99658.00;;;-6.90;100.00
74552;BME280;63025;55.472;38.432;2023-11-21T01:01:40;99658.31;;;-6.94;100.00
74552;BME280;63025;55.472;38.432;2023-11-21T01:04:06;99658.66;;;-6.99;100.00
74552;BME280;63025;55.472;38.432;2023-11-21T01:06:33;99667.09;;;-6.95;100.00
74552;BME280;63025;55.472;38.432;2023-11-21T01:08:59;99660.81;;;-6.93;100.00
74552;BME280;63025;55.472;38.432;2023-11-21T01:11:25;99656.53;;;-6.94;100.00
74552;BME280;63025;55.472;38.432;2023-11-21T01:13:52;99653.66;;;-7.02;100.00
74552;BME280;63025;55.472;38.432;2023-11-21T01:16:18;99651.56;;;-6.97;100.00
74552;BME280;63025;55.472;38.432;2023-11-21T01:18:45;99650.53;;;-7.07;100.00
74552;BME280;63025;55.472;38.432;2023-11-21T01:21:12;99657.19;;;-7.03;100.00
74552;BME280;63025;55.472;38.432;2023-11-21T01:23:38;99659.22;;;-7.07;100.00
74552;BME280;63025;55.472;38.432;2023-11-21T01:26:04;99654.75;;;-7.17;100.00
74552;BME280;63025;55.472;38.432;2023-11-21T01:28:29;99663.06;;;-7.12;100.00
74552;BME280;63025;55.472;38.432;2023-11-21T01:30:57;99662.22;;;-7.13;100.00
74552;BME280;63025;55.472;38.432;2023-11-21T01:33:23;99656.19;;;-7.13;100.00
74552;BME280;63025;55.472;38.432;2023-11-21T01:35:51;99652.00;;;-7.16;100.00
74552;BME280;63025;55.472;38.432;2023-11-21T01:38:21;99665.19;;;-7.17;100.00
74552;BME280;63025;55.472;38.432;2023-11-21T01:40:48;99656.91;;;-7.24;100.00
74552;BME280;63025;55.472;38.432;2023-11-21T01:43:14;99657.75;;;-7.23;100.00
74552;BME280;63025;55.472;38.432;2023-11-21T01:45:40;99660.81;;;-7.29;100.00
74552;BME280;63025;55.472;38.432;2023-11-21T01:48:06;99657.97;;;-7.26;100.00
74552;BME280;63025;55.472;38.432;2023-11-21T01:50:32;99658.09;;;-7.28;100.00
74552;BME280;63025;55.472;38.432;2023-11-21T01:53:00;99659.97;;;-7.30;100.00
74552;BME280;63025;55.472;38.432;2023-11-21T01:55:26;99668.53;;;-7.28;100.00
74552;BME280;63025;55.472;38.432;2023-11-21T01:57:54;99661.00;;;-7.32;100.00
74552;BME280;63025;55.472;38.432;2023-11-21T02:00:21;99667.16;;;-7.33;100.00
74552;BME280;63025;55.472;38.432;2023-11-21T02:02:48;99675.00;;;-7.33;100.00
74552;BME280;63025;55.472;38.432;2023-11-21T02:05:15;99664.75;;;-7.36;100.00
74552;BME280;63025;55.472;38.432;2023-11-21T02:07:42;99665.94;;;-7.41;100.00
74552;BME280;63025;55.472;38.432;2023-11-21T02:10:09;99666.13;;;-7.44;100.00
74552;BME280;63025;55.472;38.432;2023-11-21T02:12:37;99667.06;;;-7.45;100.00
74552;BME280;63025;55.472;38.432;2023-11-21T02:15:06;99673.22;;;-7.46;100.00
74552;BME280;63025;55.472;38.432;2023-11-21T02:17:42;99668.25;;;-7.49;100.00
74552;BME280;63025;55.472;38.432;2023-11-21T02:20:12;99671.03;;;-7.52;100.00
74552;BME280;63025;55.472;38.432;2023-11-21T02:22:52;99677.31;;;-7.54;100.00
74552;BME280;63025;55.472;38.432;2023-11-21T02:25:29;99679.28;;;-7.58;100.00
74552;BME280;63025;55.472;38.432;2023-11-21T02:27:57;99682.63;;;-7.56;100.00
74552;BME280;63025;55.472;38.432;2023-11-21T02:30:24;99682.72;;;-7.57;100.00
74552;BME280;63025;55.472;38.432;2023-11-21T02:33:00;99675.72;;;-7.57;100.00
74552;BME280;63025;55.472;38.432;2023-11-21T02:35:26;99675.03;;;-7.59;100.00
74552;BME280;63025;55.472;38.432;2023-11-21T02:37:53;99675.03;;;-7.59;100.00
74552;BME280;63025;55.472;38.432;2023-11-21T02:40:19;99687.75;;;-7.54;100.00
74552;BME280;63025;55.472;38.432;2023-11-21T02:42:50;99687.22;;;-7.47;100.00
74552;BME280;63025;55.472;38.432;2023-11-21T02:45:17;99704.13;;;-7.39;100.00
74552;BME280;63025;55.472;38.432;2023-11-21T02:47:45;99705.59;;;-7.35;100.00
74552;BME280;63025;55.472;38.432;2023-11-21T02:50:11;99699.31;;;-7.33;100.00
74552;BME280;63025;55.472;38.432;2023-11-21T02:52:38;99709.47;;;-7.28;100.00
74552;BME280;63025;55.472;38.432;2023-11-21T02:55:06;99709.03;;;-7.22;100.00
74552;BME280;63025;55.472;38.432;2023-11-21T02:57:35;99702.13;;;-7.23;100.00
74552;BME280;63025;55.472;38.432;2023-11-21T03:00:01;99710.69;;;-7.09;100.00
74552;BME280;63025;55.472;38.432;2023-11-21T03:02:31;99720.41;;;-7.11;100.00
74552;BME280;63025;55.472;38.432;2023-11-21T03:04:57;99706.31;;;-7.08;100.00
74552;BME280;63025;55.472;38.432;2023-11-21T03:07:24;99700.84;;;-7.05;100.00
74552;BME280;63025;55.472;38.432;2023-11-21T03:09:51;99698.16;;;-7.04;100.00
74552;BME280;63025;55.472;38.432;2023-11-21T03:12:17;99703.38;;;-7.04;100.00
74552;BME280;63025;55.472;38.432;2023-11-21T03:14:43;99703.06;;;-6.99;100.00
74552;BME280;63025;55.472;38.432;2023-11-21T03:17:09;99705.22;;;-6.93;100.00
74552;BME280;63025;55.472;38.432;2023-11-21T03:19:35;99717.56;;;-6.95;100.00
74552;BME280;63025;55.472;38.432;2023-11-21T03:22:00;99719.88;;;-7.03;100.00
74552;BME280;63025;55.472;38.432;2023-11-21T03:24:26;99722.56;;;-6.92;100.00
74552;BME280;63025;55.472;38.432;2023-11-21T03:26:52;99725.47;;;-6.84;100.00
74552;BME280;63025;55.472;38.432;2023-11-21T03:29:18;99724.44;;;-6.81;100.00
74552;BME280;63025;55.472;38.432;2023-11-21T03:31:45;99730.28;;;-6.78;100.00
74552;BME280;63025;55.472;38.432;2023-11-21T03:34:16;99735.06;;;-6.72;100.00
74552;BME280;63025;55.472;38.432;2023-11-21T03:36:43;99733.19;;;-6.70;100.00
74552;BME280;63025;55.472;38.432;2023-11-21T03:39:08;99731.91;;;-6.64;100.00
74552;BME280;63025;55.472;38.432;2023-11-21T03:41:35;99742.25;;;-6.62;100.00
74552;BME280;63025;55.472;38.432;2023-11-21T03:44:00;99730.38;;;-6.67;100.00
74552;BME280;63025;55.472;38.432;2023-11-21T03:46:26;99738.41;;;-6.70;100.00
74552;BME280;63025;55.472;38.432;2023-11-21T03:48:52;99737.59;;;-6.70;100.00
74552;BME280;63025;55.472;38.432;2023-11-21T03:51:18;99734.41;;;-6.62;100.00
74552;BME280;63025;55.472;38.432;2023-11-21T03:53:44;99736.34;;;-6.64;100.00
74552;BME280;63025;55.472;38.432;2023-11-21T03:56:09;99733.38;;;-6.60;100.00
74552;BME280;63025;55.472;38.432;2023-11-21T03:58:35;99739.44;;;-6.59;100.00
74552;BME280;63025;55.472;38.432;2023-11-21T04:01:01;99736.19;;;-6.63;100.00
74552;BME280;63025;55.472;38.432;2023-11-21T04:03:27;99738.53;;;-6.71;100.00
74552;BME280;63025;55.472;38.432;2023-11-21T04:05:53;99739.56;;;-6.74;100.00
74552;BME280;63025;55.472;38.432;2023-11-21T04:08:19;99734.69;;;-6.78;100.00
74552;BME280;63025;55.472;38.432;2023-11-21T04:10:45;99728.69;;;-6.68;100.00
74552;BME280;63025;55.472;38.432;2023-11-21T04:13:11;99741.22;;;-6.60;100.00
74552;BME280;63025;55.472;38.432;2023-11-21T04:15:37;99735.69;;;-6.68;100.00
74552;BME280;63025;55.472;38.432;2023-11-21T04:18:03;99736.53;;;-6.68;100.00
74552;BME280;63025;55.472;38.432;2023-11-21T04:20:29;99735.69;;;-6.68;100.00
74552;BME280;63025;55.472;38.432;2023-11-21T04:22:54;99732.25;;;-6.69;100.00
74552;BME280;63025;55.472;38.432;2023-11-21T04:25:20;99738.41;;;-6.70;100.00
74552;BME280;63025;55.472;38.432;2023-11-21T04:27:48;99738.72;;;-6.74;100.00
74552;BME280;63025;55.472;38.432;2023-11-21T04:30:14;99742.34;;;-6.64;100.00
74552;BME280;63025;55.472;38.432;2023-11-21T04:32:41;99740.59;;;-6.63;100.00
74552;BME280;63025;55.472;38.432;2023-11-21T04:35:08;99733.91;;;-6.55;100.00
74552;BME280;63025;55.472;38.432;2023-11-21T04:37:34;99734.13;;;-6.71;100.00
74552;BME280;63025;55.472;38.432;2023-11-21T04:40:01;99740.38;;;-6.60;100.00
74552;BME280;63025;55.472;38.432;2023-11-21T04:42:30;99731.09;;;-6.64;100.00
74552;BME280;63025;55.472;38.432;2023-11-21T04:44:56;99734.41;;;-6.62;100.00
74552;BME280;63025;55.472;38.432;2023-11-21T04:47:21;99731.38;;;-6.56;100.00
74552;BME280;63025;55.472;38.432;2023-11-21T04:49:47;99732.22;;;-6.56;100.00
74552;BME280;63025;55.472;38.432;2023-11-21T04:52:13;99731.38;;;-6.56;100.00
74552;BME280;63025;55.472;38.432;2023-11-21T04:54:39;99732.13;;;-6.54;100.00
74552;BME280;63025;55.472;38.432;2023-11-21T04:57:06;99737.75;;;-6.60;100.00
74552;BME280;63025;55.472;38.432;2023-11-21T04:59:34;99747.47;;;-6.62;100.00
74552;BME280;63025;55.472;38.432;2023-11-21T05:02:01;99750.81;;;-6.60;100.00
74552;BME280;63025;55.472;38.432;2023-11-21T05:04:27;99740.59;;;-6.63;100.00
74552;BME280;63025;55.472;38.432;2023-11-21T05:06:53;99747.09;;;-6.69;100.00
74552;BME280;63025;55.472;38.432;2023-11-21T05:09:19;99753.66;;;-6.63;100.00
74552;BME280;63025;55.472;38.432;2023-11-21T05:11:45;99760.78;;;-6.65;100.00
74552;BME280;63025;55.472;38.432;2023-11-21T05:14:12;99766.31;;;-6.57;100.00
74552;BME280;63025;55.472;38.432;2023-11-21T05:16:39;99773.94;;;-6.54;100.00
74552;BME280;63025;55.472;38.432;2023-11-21T05:19:05;99769.41;;;-6.52;100.00
74552;BME280;63025;55.472;38.432;2023-11-21T05:21:32;99765.38;;;-6.56;100.00
74552;BME280;63025;55.472;38.432;2023-11-21T05:23:59;99768.06;;;-6.58;100.00
74552;BME280;63025;55.472;38.432;2023-11-21T05:26:25;99774.97;;;-6.57;100.00
74552;BME280;63025;55.472;38.432;2023-11-21T05:28:51;99776.03;;;-6.59;100.00
74552;BME280;63025;55.472;38.432;2023-11-21T05:31:17;99777.25;;;-6.52;100.00
74552;BME280;63025;55.472;38.432;2023-11-21T05:33:43;99776.66;;;-6.56;100.00
74552;BME280;63025;55.472;38.432;2023-11-21T05:36:09;99780.81;;;-6.53;100.00
74552;BME280;63025;55.472;38.432;2023-11-21T05:38:36;99777.88;;;-6.49;100.00
74552;BME280;63025;55.472;38.432;2023-11-21T05:41:02;99780.59;;;-6.50;100.00
74552;BME280;63025;55.472;38.432;2023-11-21T05:43:30;99798.34;;;-6.43;100.00
74552;BME280;63025;55.472;38.432;2023-11-21T05:45:59;99795.03;;;-6.45;100.00
74552;BME280;63025;55.472;38.432;2023-11-21T05:48:25;99787.06;;;-6.43;100.00
74552;BME280;63025;55.472;38.432;2023-11-21T05:50:52;99793.47;;;-6.47;100.00
74552;BME280;63025;55.472;38.432;2023-11-21T05:53:19;99805.91;;;-6.51;100.00
74552;BME280;63025;55.472;38.432;2023-11-21T05:55:45;99806.19;;;-6.43;100.00
74552;BME280;63025;55.472;38.432;2023-11-21T05:58:11;99800.53;;;-6.37;100.00
74552;BME280;63025;55.472;38.432;2023-11-21T06:00:39;99800.19;;;-6.32;100.00
74552;BME280;63025;55.472;38.432;2023-11-21T06:03:06;99798.22;;;-6.28;100.00
74552;BME280;63025;55.472;38.432;2023-11-21T06:05:33;99801.88;;;-6.31;100.00
74552;BME280;63025;55.472;38.432;2023-11-21T06:07:59;99800.53;;;-6.37;100.00
74552;BME280;63025;55.472;38.432;2023-11-21T06:10:27;99804.59;;;-6.33;100.00
74552;BME280;63025;55.472;38.432;2023-11-21T06:12:54;99790.19;;;-6.38;100.00
74552;BME280;63025;55.472;38.432;2023-11-21T06:15:21;99802.72;;;-6.43;100.00
74552;BME280;63025;55.472;38.432;2023-11-21T06:17:49;99811.94;;;-6.38;100.00
74552;BME280;63025;55.472;38.432;2023-11-21T06:20:19;99809.44;;;-6.39;100.00
74552;BME280;63025;55.472;38.432;2023-11-21T06:22:47;99812.03;;;-6.39;100.00
74552;BME280;63025;55.472;38.432;2023-11-21T06:25:13;99810.38;;;-6.40;100.00
74552;BME280;63025;55.472;38.432;2023-11-21T06:27:42;99807.56;;;-6.37;100.00
74552;BME280;63025;55.472;38.432;2023-11-21T06:30:08;99803.75;;;-6.33;100.00
74552;BME280;63025;55.472;38.432;2023-11-21T06:32:36;99803.56;;;-6.30;100.00
74552;BME280;63025;55.472;38.432;2023-11-21T06:35:03;99794.88;;;-6.31;100.00
74552;BME280;63025;55.472;38.432;2023-11-21T06:37:31;99805.44;;;-6.32;100.00
74552;BME280;63025;55.472;38.432;2023-11-21T06:39:58;99801.47;;;-6.25;100.00
74552;BME280;63025;55.472;38.432;2023-11-21T06:42:25;99807.47;;;-6.12;100.00
74552;BME280;63025;55.472;38.432;2023-11-21T06:44:51;99795.34;;;-6.13;100.00
74552;BME280;63025;55.472;38.432;2023-11-21T06:47:17;99806.19;;;-6.06;100.00
74552;BME280;63025;55.472;38.432;2023-11-21T06:49:46;99800.81;;;-5.92;100.00
74552;BME280;63025;55.472;38.432;2023-11-21T06:52:15;99802.09;;;-5.86;100.00
74552;BME280;63025;55.472;38.432;2023-11-21T06:57:26;99795.59;;;-5.81;100.00
74552;BME280;63025;55.472;38.432;2023-11-21T06:59:52;99794.03;;;-5.95;100.00
74552;BME280;63025;55.472;38.432;2023-11-21T07:02:18;99785.22;;;-5.94;100.00
74552;BME280;63025;55.472;38.432;2023-11-21T07:04:46;99795.47;;;-5.79;100.00
74552;BME280;63025;55.472;38.432;2023-11-21T07:07:12;99799.44;;;-5.74;100.00
74552;BME280;63025;55.472;38.432;2023-11-21T07:09:38;99797.16;;;-5.78;100.00
74552;BME280;63025;55.472;38.432;2023-11-21T07:12:05;99808.34;;;-5.76;100.00
74552;BME280;63025;55.472;38.432;2023-11-21T07:14:36;99796.47;;;-5.69;100.00
74552;BME280;63025;55.472;38.432;2023-11-21T07:17:04;99794.84;;;-5.59;100.00
74552;BME280;63025;55.472;38.432;2023-11-21T07:19:30;99804.16;;;-5.79;100.00
74552;BME280;63025;55.472;38.432;2023-11-21T07:21:56;99806.56;;;-5.76;100.00
74552;BME280;63025;55.472;38.432;2023-11-21T07:24:22;99814.78;;;-5.69;100.00
74552;BME280;63025;55.472;38.432;2023-11-21T07:26:50;99807.22;;;-5.61;100.00
74552;BME280;63025;55.472;38.432;2023-11-21T07:29:16;99811.75;;;-5.63;100.00
74552;BME280;63025;55.472;38.432;2023-11-21T07:31:42;99815.34;;;-5.53;100.00
74552;BME280;63025;55.472;38.432;2023-11-21T07:34:08;99818.06;;;-5.55;100.00
74552;BME280;63025;55.472;38.432;2023-11-21T07:36:34;99813.47;;;-5.51;100.00
74552;BME280;63025;55.472;38.432;2023-11-21T07:39:00;99817.75;;;-5.39;100.00
74552;BME280;63025;55.472;38.432;2023-11-21T07:41:27;99812.91;;;-5.32;100.00
74552;BME280;63025;55.472;38.432;2023-11-21T07:43:55;99821.25;;;-5.27;100.00
74552;BME280;63025;55.472;38.432;2023-11-21T07:46:21;99816.53;;;-5.22;100.00
74552;BME280;63025;55.472;38.432;2023-11-21T07:48:47;99815.16;;;-5.39;100.00
74552;BME280;63025;55.472;38.432;2023-11-21T07:51:13;99817.81;;;-5.28;100.00
74552;BME280;63025;55.472;38.432;2023-11-21T07:53:40;99819.72;;;-5.30;100.00
74552;BME280;63025;55.472;38.432;2023-11-21T07:56:08;99819.97;;;-5.22;100.00
74552;BME280;63025;55.472;38.432;2023-11-21T07:58:37;99827.38;;;-5.15;100.00
74552;BME280;63025;55.472;38.432;2023-11-21T08:01:03;99825.25;;;-5.10;100.00
74552;BME280;63025;55.472;38.432;2023-11-21T08:03:30;99820.22;;;-5.13;100.00
74552;BME280;63025;55.472;38.432;2023-11-21T08:05:56;99811.34;;;-5.35;100.00
74552;BME280;63025;55.472;38.432;2023-11-21T08:08:23;99816.41;;;-5.21;100.00
74552;BME280;63025;55.472;38.432;2023-11-21T08:10:49;99826.78;;;-5.19;100.00
74552;BME280;63025;55.472;38.432;2023-11-21T08:13:26;99825.47;;;-5.13;100.00
74552;BME280;63025;55.472;38.432;2023-11-21T08:15:56;99831.88;;;-5.18;100.00
74552;BME280;63025;55.472;38.432;2023-11-21T08:18:23;99841.28;;;-5.15;100.00
74552;BME280;63025;55.472;38.432;2023-11-21T08:20:50;99837.13;;;-5.18;100.00
74552;BME280;63025;55.472;38.432;2023-11-21T08:23:16;99833.75;;;-5.31;100.00
74552;BME280;63025;55.472;38.432;2023-11-21T08:25:43;99834.50;;;-5.18;100.00
74552;BME280;63025;55.472;38.432;2023-11-21T08:28:09;99831.03;;;-5.18;100.00
74552;BME280;63025;55.472;38.432;2023-11-21T08:30:35;99838.19;;;-5.20;100.00
74552;BME280;63025;55.472;38.432;2023-11-21T08:33:01;99844.66;;;-5.13;100.00
74552;BME280;63025;55.472;38.432;2023-11-21T08:35:29;99844.28;;;-5.08;100.00
74552;BME280;63025;55.472;38.432;2023-11-21T08:37:55;99830.81;;;-5.15;100.00
74552;BME280;63025;55.472;38.432;2023-11-21T08:40:21;99829.81;;;-5.36;100.00
74552;BME280;63025;55.472;38.432;2023-11-21T08:42:47;99837.69;;;-5.25;100.00
74552;BME280;63025;55.472;38.432;2023-11-21T08:45:14;99836.41;;;-5.08;100.00
74552;BME280;63025;55.472;38.432;2023-11-21T08:47:40;99831.34;;;-4.99;100.00
74552;BME280;63025;55.472;38.432;2023-11-21T08:50:07;99831.78;;;-5.05;100.00
74552;BME280;63025;55.472;38.432;2023-11-21T08:52:34;99838.56;;;-5.13;100.00
74552;BME280;63025;55.472;38.432;2023-11-21T08:55:00;99832.34;;;-5.24;100.00
74552;BME280;63025;55.472;38.432;2023-11-21T08:57:36;99832.97;;;-5.20;100.00
74552;BME280;63025;55.472;38.432;2023-11-21T09:00:06;99833.81;;;-5.20;100.00
74552;BME280;63025;55.472;38.432;2023-11-21T09:02:38;99828.97;;;-5.37;100.00
74552;BME280;63025;55.472;38.432;2023-11-21T09:05:05;99820.19;;;-5.25;100.00
74552;BME280;63025;55.472;38.432;2023-11-21T09:07:32;99830.91;;;-5.28;100.00
74552;BME280;63025;55.472;38.432;2023-11-21T09:09:58;99833.88;;;-5.32;100.00
74552;BME280;63025;55.472;38.432;2023-11-21T09:12:24;99838.06;;;-5.30;100.00
74552;BME280;63025;55.472;38.432;2023-11-21T09:14:51;99838.78;;;-5.17;100.00
74552;BME280;63025;55.472;38.432;2023-11-21T09:17:17;99841.09;;;-5.01;100.00
74552;BME280;63025;55.472;38.432;2023-11-21T09:19:43;99833.38;;;-4.91;100.00
74552;BME280;63025;55.472;38.432;2023-11-21T09:22:16;99836.97;;;-4.81;100.00
74552;BME280;63025;55.472;38.432;2023-11-21T09:24:42;99836.34;;;-4.85;100.00
74552;BME280;63025;55.472;38.432;2023-11-21T09:27:08;99829.94;;;-4.81;100.00
74552;BME280;63025;55.472;38.432;2023-11-21T09:29:38;99840.66;;;-4.84;100.00
74552;BME280;63025;55.472;38.432;2023-11-21T09:32:07;99842.94;;;-4.79;100.00
74552;BME280;63025;55.472;38.432;2023-11-21T09:34:34;99844.22;;;-4.85;100.00
74552;BME280;63025;55.472;38.432;2023-11-21T09:37:04;99839.09;;;-4.86;100.00
74552;BME280;63025;55.472;38.432;2023-11-21T09:39:33;99848.03;;;-4.89;100.00
74552;BME280;63025;55.472;38.432;2023-11-21T09:42:10;99832.69;;;-4.82;100.00
74552;BME280;63025;55.472;38.432;2023-11-21T09:47:19;99841.59;;;-4.85;100.00
74552;BME280;63025;55.472;38.432;2023-11-21T09:49:47;99840.91;;;-4.75;100.00
74552;BME280;63025;55.472;38.432;2023-11-21T09:52:22;99841.28;;;-4.58;100.00
74552;BME280;63025;55.472;38.432;2023-11-21T09:54:50;99842.59;;;-4.52;100.00
74552;BME280;63025;55.472;38.432;2023-11-21T09:57:17;99832.22;;;-4.43;100.00
74552;BME280;63025;55.472;38.432;2023-11-21T09:59:45;99844.47;;;-4.65;100.00
74552;BME280;63025;55.472;38.432;2023-11-21T10:02:12;99839.72;;;-4.71;100.00
74552;BME280;63025;55.472;38.432;2023-11-21T10:04:39;99835.78;;;-4.55;100.00
74552;BME280;63025;55.472;38.432;2023-11-21T10:07:05;99841.53;;;-4.38;100.00
74552;BME280;63025;55.472;38.432;2023-11-21T10:09:36;99838.66;;;-4.47;100.00
74552;BME280;63025;55.472;38.432;2023-11-21T10:12:05;99846.28;;;-4.44;100.00
74552;BME280;63025;55.472;38.432;2023-11-21T10:14:37;99838.91;;;-4.38;100.00
74552;BME280;63025;55.472;38.432;2023-11-21T10:17:07;99831.38;;;-4.32;100.00
74552;BME280;63025;55.472;38.432;2023-11-21T10:19:36;99830.91;;;-4.26;100.00
74552;BME280;63025;55.472;38.432;2023-11-21T10:22:02;99841.16;;;-4.23;100.00
74552;BME280;63025;55.472;38.432;2023-11-21T10:24:29;99838.63;;;-4.35;100.00
74552;BME280;63025;55.472;38.432;2023-11-21T10:26:55;99842.81;;;-4.44;100.00
74552;BME280;63025;55.472;38.432;2023-11-21T10:29:21;99843.91;;;-4.58;100.00
74552;BME280;63025;55.472;38.432;2023-11-21T10:31:49;99842.47;;;-4.51;100.00
74552;BME280;63025;55.472;38.432;2023-11-21T10:34:17;99849.63;;;-4.53;100.00
74552;BME280;63025;55.472;38.432;2023-11-21T10:36:45;99848.44;;;-4.49;100.00
74552;BME280;63025;55.472;38.432;2023-11-21T10:39:16;99854.63;;;-4.50;100.00
74552;BME280;63025;55.472;38.432;2023-11-21T10:41:46;99859.38;;;-4.44;100.00
74552;BME280;63025;55.472;38.432;2023-11-21T10:44:17;99848.78;;;-4.64;100.00
74552;BME280;63025;55.472;38.432;2023-11-21T10:46:48;99848.19;;;-4.68;100.00
74552;BME280;63025;55.472;38.432;2023-11-21T10:49:18;99859.13;;;-4.74;100.00
74552;BME280;63025;55.472;38.432;2023-11-21T10:51:45;99858.06;;;-4.71;100.00
74552;BME280;63025;55.472;38.432;2023-11-21T10:54:11;99863.19;;;-4.70;100.00
74552;BME280;63025;55.472;38.432;2023-11-21T10:56:39;99857.13;;;-4.70;100.00
74552;BME280;63025;55.472;38.432;2023-11-21T10:59:10;99854.59;;;-4.72;100.00
74552;BME280;63025;55.472;38.432;2023-11-21T11:01:44;99857.09;;;-4.82;100.00
74552;BME280;63025;55.472;38.432;2023-11-21T11:04:11;99869.84;;;-4.88;100.00
74552;BME280;63025;55.472;38.432;2023-11-21T11:06:46;99870.91;;;-4.91;100.00
74552;BME280;63025;55.472;38.432;2023-11-21T11:09:17;99861.47;;;-4.93;100.00
74552;BME280;63025;55.472;38.432;2023-11-21T11:11:43;99859.44;;;-5.01;100.00
74552;BME280;63025;55.472;38.432;2023-11-21T11:14:13;99868.72;;;-4.97;100.00
74552;BME280;63025;55.472;38.432;2023-11-21T11:16:42;99859.53;;;-5.13;100.00
74552;BME280;63025;55.472;38.432;2023-11-21T11:19:09;99863.34;;;-5.06;100.00
74552;BME280;63025;55.472;38.432;2023-11-21T11:35:03;99867.72;;;-4.72;100.00
74552;BME280;63025;55.472;38.432;2023-11-21T11:37:30;99869.41;;;-4.60;100.00
74552;BME280;63025;55.472;38.432;2023-11-21T11:39:56;99864.75;;;-4.45;100.00
74552;BME280;63025;55.472;38.432;2023-11-21T11:42:22;99868.22;;;-4.45;100.00
74552;BME280;63025;55.472;38.432;2023-11-21T11:44:50;99875.47;;;-4.59;100.00
74552;BME280;63025;55.472;38.432;2023-11-21T11:47:23;99869.63;;;-4.63;100.00
74552;BME280;63025;55.472;38.432;2023-11-21T11:52:39;99876.88;;;-4.89;100.00
74552;BME280;63025;55.472;38.432;2023-11-21T11:55:07;99872.66;;;-5.02;100.00
74552;BME280;63025;55.472;38.432;2023-11-21T11:57:36;99865.63;;;-5.02;100.00
74552;BME280;63025;55.472;38.432;2023-11-21T12:00:17;99869.44;;;-4.95;100.00
74552;BME280;63025;55.472;38.432;2023-11-21T12:05:18;99878.38;;;-4.97;100.00
74552;BME280;63025;55.472;38.432;2023-11-21T12:07:55;99879.50;;;-4.89;100.00
74552;BME280;63025;55.472;38.432;2023-11-21T12:10:33;99885.06;;;-4.93;100.00
74552;BME280;63025;55.472;38.432;2023-11-21T12:13:06;99891.56;;;-5.10;100.00
74552;BME280;63025;55.472;38.432;2023-11-21T12:15:36;99882.94;;;-5.23;100.00
74552;BME280;63025;55.472;38.432;2023-11-21T12:18:03;99893.38;;;-5.34;100.00
74552;BME280;63025;55.472;38.432;2023-11-21T12:20:30;99897.81;;;-5.24;100.00
74552;BME280;63025;55.472;38.432;2023-11-21T12:22:58;99902.75;;;-5.19;100.00
74552;BME280;63025;55.472;38.432;2023-11-21T12:25:26;99897.66;;;-5.33;100.00
74552;BME280;63025;55.472;38.432;2023-11-21T12:27:55;99906.16;;;-5.30;100.00
74552;BME280;63025;55.472;38.432;2023-11-21T12:30:24;99905.47;;;-5.21;100.00
74552;BME280;63025;55.472;38.432;2023-11-21T12:32:53;99907.63;;;-5.14;100.00
74552;BME280;63025;55.472;38.432;2023-11-21T12:35:23;99911.81;;;-5.12;100.00
74552;BME280;63025;55.472;38.432;2023-11-21T12:37:50;99914.75;;;-5.17;100.00
74552;BME280;63025;55.472;38.432;2023-11-21T12:40:18;99920.72;;;-5.14;100.00
74552;BME280;63025;55.472;38.432;2023-11-21T12:42:46;99910.53;;;-5.30;100.00
74552;BME280;63025;55.472;38.432;2023-11-21T12:47:44;99934.66;;;-5.38;100.00
74552;BME280;63025;55.472;38.432;2023-11-21T12:50:20;99928.81;;;-5.41;100.00
74552;BME280;63025;55.472;38.432;2023-11-21T12:52:52;99934.09;;;-5.54;100.00
74552;BME280;63025;55.472;38.432;2023-11-21T12:55:21;99932.88;;;-5.61;100.00
74552;BME280;63025;55.472;38.432;2023-11-21T12:57:52;99929.28;;;-5.60;100.00
74552;BME280;63025;55.472;38.432;2023-11-21T13:00:27;99931.91;;;-5.60;100.00
74552;BME280;63025;55.472;38.432;2023-11-21T13:02:54;99933.09;;;-5.64;100.00
74552;BME280;63025;55.472;38.432;2023-11-21T13:05:33;99935.28;;;-5.71;100.00
74552;BME280;63025;55.472;38.432;2023-11-21T13:08:01;99937.69;;;-5.68;100.00